sensor_id;sensor_type;location;lat;lon;timestamp;P1;durP1;ratioP1;P2;durP2;ratioP2
30593;SDS011;33199;47.590;8.300;2023-03-20T00:00:32;0.50;;;0.50;;
30593;SDS011;33199;47.590;8.300;2023-03-20T00:05:27;0.70;;;0.70;;
30593;SDS011;33199;47.590;8.300;2023-03-20T00:07:54;0.63;;;0.60;;
30593;SDS011;33199;47.590;8.300;2023-03-20T00:10:21;1.00;;;0.73;;
30593;SDS011;33199;47.590;8.300;2023-03-20T00:12:51;1.15;;;0.70;;
30593;SDS011;33199;47.590;8.300;2023-03-20T00:15:27;1.00;;;0.77;;
30593;SDS011;33199;47.590;8.300;2023-03-20T00:17:56;0.50;;;0.50;;
30593;SDS011;33199;47.590;8.300;2023-03-20T00:20:22;0.85;;;0.65;;
30593;SDS011;33199;47.590;8.300;2023-03-20T00:22:48;0.73;;;0.73;;
30593;SDS011;33199;47.590;8.300;2023-03-20T00:25:23;0.80;;;0.80;;
30593;SDS011;33199;47.590;8.300;2023-03-20T00:27:50;0.65;;;0.60;;
30593;SDS011;33199;47.590;8.300;2023-03-20T00:30:20;0.77;;;0.70;;
30593;SDS011;33199;47.590;8.300;2023-03-20T00:32:47;0.40;;;0.40;;
30593;SDS011;33199;47.590;8.300;2023-03-20T00:35:23;0.63;;;0.50;;
30593;SDS011;33199;47.590;8.300;2023-03-20T00:37:52;0.50;;;0.50;;
30593;SDS011;33199;47.590;8.300;2023-03-20T00:40:19;0.60;;;0.60;;
30593;SDS011;33199;47.590;8.300;2023-03-20T00:42:46;0.73;;;0.70;;
30593;SDS011;33199;47.590;8.300;2023-03-20T00:45:18;0.50;;;0.50;;
30593;SDS011;33199;47.590;8.300;2023-03-20T00:47:46;0.90;;;0.75;;
30593;SDS011;33199;47.590;8.300;2023-03-20T00:50:17;0.50;;;0.50;;
30593;SDS011;33199;47.590;8.300;2023-03-20T00:52:47;0.50;;;0.50;;
30593;SDS011;33199;47.590;8.300;2023-03-20T00:55:14;1.80;;;0.60;;
30593;SDS011;33199;47.590;8.300;2023-03-20T01:02:50;0.68;;;0.68;;
30593;SDS011;33199;47.590;8.300;2023-03-20T01:05:17;0.47;;;0.47;;
30593;SDS011;33199;47.590;8.300;2023-03-20T01:07:44;0.90;;;0.60;;
30593;SDS011;33199;47.590;8.300;2023-03-20T01:10:11;0.73;;;0.50;;
30593;SDS011;33199;47.590;8.300;2023-03-20T01:12:38;1.75;;;0.60;;
30593;SDS011;33199;47.590;8.300;2023-03-20T01:15:06;0.50;;;0.50;;
30593;SDS011;33199;47.590;8.300;2023-03-20T01:17:41;0.75;;;0.75;;
30593;SDS011;33199;47.590;8.300;2023-03-20T01:20:13;0.60;;;0.60;;
30593;SDS011;33199;47.590;8.300;2023-03-20T01:22:41;0.60;;;0.60;;
30593;SDS011;33199;47.590;8.300;2023-03-20T01:25:07;0.60;;;0.60;;
30593;SDS011;33199;47.590;8.300;2023-03-20T01:27:33;0.50;;;0.50;;
30593;SDS011;33199;47.590;8.300;2023-03-20T01:29:58;0.50;;;0.50;;
30593;SDS011;33199;47.590;8.300;2023-03-20T01:32:24;0.50;;;0.50;;
30593;SDS011;33199;47.590;8.300;2023-03-20T01:34:50;0.47;;;0.47;;
30593;SDS011;33199;47.590;8.300;2023-03-20T01:37:21;0.88;;;0.70;;
30593;SDS011;33199;47.590;8.300;2023-03-20T01:39:51;1.05;;;0.70;;
30593;SDS011;33199;47.590;8.300;2023-03-20T01:42:17;0.95;;;0.70;;
30593;SDS011;33199;47.590;8.300;2023-03-20T01:44:43;0.73;;;0.52;;
30593;SDS011;33199;47.590;8.300;2023-03-20T01:47:16;0.70;;;0.70;;
30593;SDS011;33199;47.590;8.300;2023-03-20T01:52:53;0.52;;;0.52;;
30593;SDS011;33199;47.590;8.300;2023-03-20T01:55:26;0.55;;;0.55;;
30593;SDS011;33199;47.590;8.300;2023-03-20T01:57:53;0.60;;;0.60;;
30593;SDS011;33199;47.590;8.300;2023-03-20T02:00:19;0.60;;;0.60;;
30593;SDS011;33199;47.590;8.300;2023-03-20T02:02:46;0.50;;;0.50;;
30593;SDS011;33199;47.590;8.300;2023-03-20T02:05:12;0.70;;;0.70;;
30593;SDS011;33199;47.590;8.300;2023-03-20T02:07:41;0.60;;;0.60;;
30593;SDS011;33199;47.590;8.300;2023-03-20T02:10:12;0.43;;;0.43;;
30593;SDS011;33199;47.590;8.300;2023-03-20T02:12:40;0.50;;;0.50;;
30593;SDS011;33199;47.590;8.300;2023-03-20T02:15:06;1.15;;;0.80;;
30593;SDS011;33199;47.590;8.300;2023-03-20T02:17:32;0.80;;;0.60;;
30593;SDS011;33199;47.590;8.300;2023-03-20T02:39:51;0.52;;;0.52;;
30593;SDS011;33199;47.590;8.300;2023-03-20T02:47:50;0.40;;;0.40;;
30593;SDS011;33199;47.590;8.300;2023-03-20T02:50:34;0.55;;;0.55;;
30593;SDS011;33199;47.590;8.300;2023-03-20T02:53:38;0.57;;;0.57;;
30593;SDS011;33199;47.590;8.300;2023-03-20T02:56:18;0.60;;;0.60;;
30593;SDS011;33199;47.590;8.300;2023-03-20T03:04:00;1.70;;;0.70;;
30593;SDS011;33199;47.590;8.300;2023-03-20T03:06:39;0.60;;;0.60;;
30593;SDS011;33199;47.590;8.300;2023-03-20T03:09:17;0.60;;;0.60;;
30593;SDS011;33199;47.590;8.300;2023-03-20T03:11:57;0.52;;;0.52;;
30593;SDS011;33199;47.590;8.300;2023-03-20T03:17:01;0.82;;;0.70;;
30593;SDS011;33199;47.590;8.300;2023-03-20T03:19:30;0.50;;;0.50;;
30593;SDS011;33199;47.590;8.300;2023-03-20T03:21:59;0.85;;;0.70;;
30593;SDS011;33199;47.590;8.300;2023-03-20T03:26:56;0.60;;;0.60;;
30593;SDS011;33199;47.590;8.300;2023-03-20T03:29:24;0.52;;;0.52;;
30593;SDS011;33199;47.590;8.300;2023-03-20T03:31:54;0.70;;;0.70;;
30593;SDS011;33199;47.590;8.300;2023-03-20T03:34:20;0.70;;;0.70;;
30593;SDS011;33199;47.590;8.300;2023-03-20T03:36:58;0.60;;;0.60;;
30593;SDS011;33199;47.590;8.300;2023-03-20T03:42:23;0.52;;;0.52;;
30593;SDS011;33199;47.590;8.300;2023-03-20T03:44:59;0.65;;;0.65;;
30593;SDS011;33199;47.590;8.300;2023-03-20T03:47:53;0.70;;;0.70;;
30593;SDS011;33199;47.590;8.300;2023-03-20T03:50:24;0.70;;;0.70;;
30593;SDS011;33199;47.590;8.300;2023-03-20T03:52:56;1.13;;;1.02;;
30593;SDS011;33199;47.590;8.300;2023-03-20T03:55:27;0.52;;;0.52;;
30593;SDS011;33199;47.590;8.300;2023-03-20T03:57:59;0.63;;;0.63;;
30593;SDS011;33199;47.590;8.300;2023-03-20T04:00:28;0.82;;;0.60;;
30593;SDS011;33199;47.590;8.300;2023-03-20T04:02:56;0.80;;;0.80;;
30593;SDS011;33199;47.590;8.300;2023-03-20T04:05:23;1.30;;;0.90;;
30593;SDS011;33199;47.590;8.300;2023-03-20T04:07:55;0.80;;;0.80;;
30593;SDS011;33199;47.590;8.300;2023-03-20T04:10:23;0.80;;;0.77;;
30593;SDS011;33199;47.590;8.300;2023-03-20T04:12:49;0.60;;;0.60;;
30593;SDS011;33199;47.590;8.300;2023-03-20T04:15:15;0.68;;;0.68;;
30593;SDS011;33199;47.590;8.300;2023-03-20T04:17:41;0.60;;;0.60;;
30593;SDS011;33199;47.590;8.300;2023-03-20T04:20:09;0.93;;;0.77;;
30593;SDS011;33199;47.590;8.300;2023-03-20T04:22:35;0.90;;;0.90;;
30593;SDS011;33199;47.590;8.300;2023-03-20T04:25:01;0.90;;;0.90;;
30593;SDS011;33199;47.590;8.300;2023-03-20T04:27:28;0.70;;;0.70;;
30593;SDS011;33199;47.590;8.300;2023-03-20T04:29:53;0.80;;;0.80;;
30593;SDS011;33199;47.590;8.300;2023-03-20T04:32:19;0.77;;;0.77;;
30593;SDS011;33199;47.590;8.300;2023-03-20T04:34:45;1.02;;;0.93;;
30593;SDS011;33199;47.590;8.300;2023-03-20T04:37:11;0.90;;;0.90;;
30593;SDS011;33199;47.590;8.300;2023-03-20T04:39:37;0.80;;;0.80;;
30593;SDS011;33199;47.590;8.300;2023-03-20T04:42:03;1.15;;;1.15;;
30593;SDS011;33199;47.590;8.300;2023-03-20T04:44:29;0.90;;;0.90;;
30593;SDS011;33199;47.590;8.300;2023-03-20T04:46:56;1.00;;;1.00;;
30593;SDS011;33199;47.590;8.300;2023-03-20T04:49:22;1.10;;;1.10;;
30593;SDS011;33199;47.590;8.300;2023-03-20T04:51:47;0.90;;;0.90;;
30593;SDS011;33199;47.590;8.300;2023-03-20T04:54:13;0.98;;;0.98;;
30593;SDS011;33199;47.590;8.300;2023-03-20T04:56:39;0.85;;;0.85;;
30593;SDS011;33199;47.590;8.300;2023-03-20T04:59:04;1.17;;;1.00;;
30593;SDS011;33199;47.590;8.300;2023-03-20T05:01:30;1.05;;;1.02;;
30593;SDS011;33199;47.590;8.300;2023-03-20T05:03:57;1.17;;;0.90;;
30593;SDS011;33199;47.590;8.300;2023-03-20T05:06:28;1.10;;;1.10;;
30593;SDS011;33199;47.590;8.300;2023-03-20T05:08:55;0.90;;;0.90;;
30593;SDS011;33199;47.590;8.300;2023-03-20T05:11:23;1.05;;;1.02;;
30593;SDS011;33199;47.590;8.300;2023-03-20T05:13:52;1.48;;;1.38;;
30593;SDS011;33199;47.590;8.300;2023-03-20T05:16:18;0.98;;;0.98;;
30593;SDS011;33199;47.590;8.300;2023-03-20T05:18:43;1.10;;;1.10;;
30593;SDS011;33199;47.590;8.300;2023-03-20T05:21:09;1.23;;;1.13;;
30593;SDS011;33199;47.590;8.300;2023-03-20T05:23:35;0.90;;;0.90;;
30593;SDS011;33199;47.590;8.300;2023-03-20T05:26:00;16.38;;;10.68;;
30593;SDS011;33199;47.590;8.300;2023-03-20T05:28:26;15.30;;;10.48;;
30593;SDS011;33199;47.590;8.300;2023-03-20T05:30:52;14.00;;;9.73;;
30593;SDS011;33199;47.590;8.300;2023-03-20T05:33:18;17.95;;;10.45;;
30593;SDS011;33199;47.590;8.300;2023-03-20T05:35:44;19.05;;;8.90;;
30593;SDS011;33199;47.590;8.300;2023-03-20T05:38:10;14.88;;;10.25;;
30593;SDS011;33199;47.590;8.300;2023-03-20T05:40:35;16.00;;;10.25;;
30593;SDS011;33199;47.590;8.300;2023-03-20T05:43:01;13.20;;;9.38;;
30593;SDS011;33199;47.590;8.300;2023-03-20T05:45:27;15.00;;;9.43;;
30593;SDS011;33199;47.590;8.300;2023-03-20T05:47:53;14.95;;;9.00;;
30593;SDS011;33199;47.590;8.300;2023-03-20T05:50:18;11.85;;;8.20;;
30593;SDS011;33199;47.590;8.300;2023-03-20T05:52:47;12.63;;;8.55;;
30593;SDS011;33199;47.590;8.300;2023-03-20T05:55:13;11.18;;;8.27;;
30593;SDS011;33199;47.590;8.300;2023-03-20T05:57:39;12.48;;;8.02;;
30593;SDS011;33199;47.590;8.300;2023-03-20T06:00:05;10.20;;;7.88;;
30593;SDS011;33199;47.590;8.300;2023-03-20T06:02:32;11.38;;;7.90;;
30593;SDS011;33199;47.590;8.300;2023-03-20T06:04:58;11.13;;;7.07;;
30593;SDS011;33199;47.590;8.300;2023-03-20T06:07:24;7.20;;;6.40;;
30593;SDS011;33199;47.590;8.300;2023-03-20T06:09:49;8.85;;;6.57;;
30593;SDS011;33199;47.590;8.300;2023-03-20T06:12:16;9.57;;;6.72;;
30593;SDS011;33199;47.590;8.300;2023-03-20T06:14:41;8.68;;;6.63;;
30593;SDS011;33199;47.590;8.300;2023-03-20T06:17:08;7.78;;;6.00;;
30593;SDS011;33199;47.590;8.300;2023-03-20T06:19:33;12.80;;;6.22;;
30593;SDS011;33199;47.590;8.300;2023-03-20T06:21:59;7.22;;;5.63;;
30593;SDS011;33199;47.590;8.300;2023-03-20T06:24:25;9.05;;;6.60;;
30593;SDS011;33199;47.590;8.300;2023-03-20T06:26:51;7.57;;;5.65;;
30593;SDS011;33199;47.590;8.300;2023-03-20T06:29:16;6.22;;;5.53;;
30593;SDS011;33199;47.590;8.300;2023-03-20T06:31:42;7.13;;;5.65;;
30593;SDS011;33199;47.590;8.300;2023-03-20T06:34:08;7.07;;;5.55;;
30593;SDS011;33199;47.590;8.300;2023-03-20T06:36:34;6.70;;;5.45;;
30593;SDS011;33199;47.590;8.300;2023-03-20T06:38:59;6.65;;;5.00;;
30593;SDS011;33199;47.590;8.300;2023-03-20T06:41:25;5.72;;;5.03;;
30593;SDS011;33199;47.590;8.300;2023-03-20T06:43:51;5.50;;;4.82;;
30593;SDS011;33199;47.590;8.300;2023-03-20T06:46:16;5.95;;;5.20;;
30593;SDS011;33199;47.590;8.300;2023-03-20T06:48:42;7.82;;;4.78;;
30593;SDS011;33199;47.590;8.300;2023-03-20T06:51:07;5.97;;;4.35;;
30593;SDS011;33199;47.590;8.300;2023-03-20T06:53:33;5.30;;;4.55;;
30593;SDS011;33199;47.590;8.300;2023-03-20T06:55:59;5.68;;;4.78;;
30593;SDS011;33199;47.590;8.300;2023-03-20T06:58:24;5.78;;;4.72;;
30593;SDS011;33199;47.590;8.300;2023-03-20T07:00:51;5.47;;;4.57;;
30593;SDS011;33199;47.590;8.300;2023-03-20T07:03:18;4.60;;;4.20;;
30593;SDS011;33199;47.590;8.300;2023-03-20T07:05:44;7.90;;;4.95;;
30593;SDS011;33199;47.590;8.300;2023-03-20T07:08:10;6.15;;;4.47;;
30593;SDS011;33199;47.590;8.300;2023-03-20T07:10:36;4.75;;;4.15;;
30593;SDS011;33199;47.590;8.300;2023-03-20T07:13:02;5.32;;;4.38;;
30593;SDS011;33199;47.590;8.300;2023-03-20T07:15:28;5.43;;;4.30;;
30593;SDS011;33199;47.590;8.300;2023-03-20T07:17:54;4.50;;;4.07;;
30593;SDS011;33199;47.590;8.300;2023-03-20T07:20:20;5.72;;;3.90;;
30593;SDS011;33199;47.590;8.300;2023-03-20T07:22:46;6.38;;;4.18;;
30593;SDS011;33199;47.590;8.300;2023-03-20T07:25:12;4.07;;;3.78;;
30593;SDS011;33199;47.590;8.300;2023-03-20T07:27:39;4.97;;;4.00;;
30593;SDS011;33199;47.590;8.300;2023-03-20T07:30:05;5.53;;;4.50;;
30593;SDS011;33199;47.590;8.300;2023-03-20T07:32:32;5.28;;;4.25;;
30593;SDS011;33199;47.590;8.300;2023-03-20T07:34:58;7.40;;;4.00;;
30593;SDS011;33199;47.590;8.300;2023-03-20T07:37:24;4.03;;;3.60;;
30593;SDS011;33199;47.590;8.300;2023-03-20T07:39:50;4.70;;;4.20;;
30593;SDS011;33199;47.590;8.300;2023-03-20T07:42:16;5.07;;;3.85;;
30593;SDS011;33199;47.590;8.300;2023-03-20T07:44:41;4.65;;;4.10;;
30593;SDS011;33199;47.590;8.300;2023-03-20T07:47:07;4.22;;;3.72;;
30593;SDS011;33199;47.590;8.300;2023-03-20T07:49:33;3.75;;;3.45;;
30593;SDS011;33199;47.590;8.300;2023-03-20T07:51:59;5.70;;;4.05;;
30593;SDS011;33199;47.590;8.300;2023-03-20T07:54:25;4.85;;;3.67;;
30593;SDS011;33199;47.590;8.300;2023-03-20T07:56:50;5.13;;;3.67;;
30593;SDS011;33199;47.590;8.300;2023-03-20T07:59:17;4.05;;;3.63;;
30593;SDS011;33199;47.590;8.300;2023-03-20T08:01:42;3.95;;;3.60;;
30593;SDS011;33199;47.590;8.300;2023-03-20T08:04:08;3.53;;;3.22;;
30593;SDS011;33199;47.590;8.300;2023-03-20T08:06:34;3.63;;;3.33;;
30593;SDS011;33199;47.590;8.300;2023-03-20T08:09:00;3.78;;;3.45;;
30593;SDS011;33199;47.590;8.300;2023-03-20T08:11:25;4.72;;;3.13;;
30593;SDS011;33199;47.590;8.300;2023-03-20T08:13:51;3.33;;;3.03;;
30593;SDS011;33199;47.590;8.300;2023-03-20T08:16:17;3.58;;;3.28;;
30593;SDS011;33199;47.590;8.300;2023-03-20T08:18:42;3.65;;;3.35;;
30593;SDS011;33199;47.590;8.300;2023-03-20T08:21:08;3.72;;;3.10;;
30593;SDS011;33199;47.590;8.300;2023-03-20T08:23:33;3.75;;;3.45;;
30593;SDS011;33199;47.590;8.300;2023-03-20T08:25:59;3.90;;;3.38;;
30593;SDS011;33199;47.590;8.300;2023-03-20T08:28:25;4.10;;;3.75;;
30593;SDS011;33199;47.590;8.300;2023-03-20T08:30:51;3.67;;;3.30;;
30593;SDS011;33199;47.590;8.300;2023-03-20T08:33:16;3.38;;;3.08;;
30593;SDS011;33199;47.590;8.300;2023-03-20T08:35:43;3.88;;;3.45;;
30593;SDS011;33199;47.590;8.300;2023-03-20T08:38:18;2.95;;;2.67;;
30593;SDS011;33199;47.590;8.300;2023-03-20T08:40:44;3.75;;;3.28;;
30593;SDS011;33199;47.590;8.300;2023-03-20T08:43:09;3.45;;;3.25;;
30593;SDS011;33199;47.590;8.300;2023-03-20T08:45:35;3.97;;;3.50;;
30593;SDS011;33199;47.590;8.300;2023-03-20T08:48:01;3.42;;;3.13;;
30593;SDS011;33199;47.590;8.300;2023-03-20T08:50:26;2.92;;;2.72;;
30593;SDS011;33199;47.590;8.300;2023-03-20T08:52:52;3.83;;;3.00;;
30593;SDS011;33199;47.590;8.300;2023-03-20T08:55:18;3.47;;;3.17;;
30593;SDS011;33199;47.590;8.300;2023-03-20T08:57:44;3.17;;;2.90;;
30593;SDS011;33199;47.590;8.300;2023-03-20T09:00:11;3.20;;;2.92;;
30593;SDS011;33199;47.590;8.300;2023-03-20T09:02:39;3.30;;;3.00;;
30593;SDS011;33199;47.590;8.300;2023-03-20T09:05:05;3.20;;;2.97;;
30593;SDS011;33199;47.590;8.300;2023-03-20T09:07:31;3.05;;;2.78;;
30593;SDS011;33199;47.590;8.300;2023-03-20T09:09:57;3.15;;;2.95;;
30593;SDS011;33199;47.590;8.300;2023-03-20T09:12:22;3.85;;;3.55;;
30593;SDS011;33199;47.590;8.300;2023-03-20T09:14:48;2.80;;;2.60;;
30593;SDS011;33199;47.590;8.300;2023-03-20T09:17:14;3.80;;;3.05;;
30593;SDS011;33199;47.590;8.300;2023-03-20T09:19:39;3.83;;;3.10;;
30593;SDS011;33199;47.590;8.300;2023-03-20T09:24:37;2.78;;;2.58;;
30593;SDS011;33199;47.590;8.300;2023-03-20T09:27:03;3.20;;;2.90;;
30593;SDS011;33199;47.590;8.300;2023-03-20T09:29:29;2.63;;;2.42;;
30593;SDS011;33199;47.590;8.300;2023-03-20T09:31:54;2.10;;;2.00;;
30593;SDS011;33199;47.590;8.300;2023-03-20T09:34:20;2.45;;;2.25;;
30593;SDS011;33199;47.590;8.300;2023-03-20T09:36:46;3.50;;;2.10;;
30593;SDS011;33199;47.590;8.300;2023-03-20T09:39:12;5.15;;;1.60;;
30593;SDS011;33199;47.590;8.300;2023-03-20T09:41:37;2.00;;;1.50;;
30593;SDS011;33199;47.590;8.300;2023-03-20T09:47:17;1.40;;;1.27;;
30593;SDS011;33199;47.590;8.300;2023-03-20T09:52:52;1.20;;;1.20;;
30593;SDS011;33199;47.590;8.300;2023-03-20T09:55:41;1.63;;;1.27;;
30593;SDS011;33199;47.590;8.300;2023-03-20T09:58:09;3.60;;;1.35;;
30593;SDS011;33199;47.590;8.300;2023-03-20T10:00:36;1.80;;;1.00;;
30593;SDS011;33199;47.590;8.300;2023-03-20T10:03:10;1.25;;;1.15;;
30593;SDS011;33199;47.590;8.300;2023-03-20T10:05:57;0.90;;;0.90;;
30593;SDS011;33199;47.590;8.300;2023-03-20T10:08:31;1.27;;;0.98;;
30593;SDS011;33199;47.590;8.300;2023-03-20T10:16:23;1.60;;;0.93;;
30593;SDS011;33199;47.590;8.300;2023-03-20T10:21:42;2.67;;;1.20;;
30593;SDS011;33199;47.590;8.300;2023-03-20T10:24:13;1.85;;;0.90;;
30593;SDS011;33199;47.590;8.300;2023-03-20T10:26:43;1.42;;;0.95;;
30593;SDS011;33199;47.590;8.300;2023-03-20T10:29:24;1.00;;;0.90;;
30593;SDS011;33199;47.590;8.300;2023-03-20T10:42:57;1.17;;;0.90;;
30593;SDS011;33199;47.590;8.300;2023-03-20T10:50:56;1.20;;;1.10;;
30593;SDS011;33199;47.590;8.300;2023-03-20T10:55:56;1.10;;;0.90;;
30593;SDS011;33199;47.590;8.300;2023-03-20T10:58:27;2.47;;;0.85;;
30593;SDS011;33199;47.590;8.300;2023-03-20T11:00:57;0.80;;;0.80;;
30593;SDS011;33199;47.590;8.300;2023-03-20T11:03:25;0.82;;;0.80;;
30593;SDS011;33199;47.590;8.300;2023-03-20T11:06:00;1.17;;;0.95;;
30593;SDS011;33199;47.590;8.300;2023-03-20T11:08:36;1.08;;;0.90;;
30593;SDS011;33199;47.590;8.300;2023-03-20T11:11:10;1.05;;;0.98;;
30593;SDS011;33199;47.590;8.300;2023-03-20T11:13:37;0.82;;;0.82;;
30593;SDS011;33199;47.590;8.300;2023-03-20T11:18:57;1.67;;;1.00;;
30593;SDS011;33199;47.590;8.300;2023-03-20T11:21:30;0.90;;;0.88;;
30593;SDS011;33199;47.590;8.300;2023-03-20T11:23:57;0.80;;;0.80;;
30593;SDS011;33199;47.590;8.300;2023-03-20T11:26:35;1.77;;;1.00;;
30593;SDS011;33199;47.590;8.300;2023-03-20T11:29:05;1.08;;;1.08;;
30593;SDS011;33199;47.590;8.300;2023-03-20T11:31:36;0.75;;;0.73;;
30593;SDS011;33199;47.590;8.300;2023-03-20T11:36:39;0.77;;;0.77;;
30593;SDS011;33199;47.590;8.300;2023-03-20T11:39:12;2.70;;;0.90;;
30593;SDS011;33199;47.590;8.300;2023-03-20T11:47:06;0.70;;;0.70;;
30593;SDS011;33199;47.590;8.300;2023-03-20T11:49:46;1.52;;;0.80;;
30593;SDS011;33199;47.590;8.300;2023-03-20T11:52:28;0.85;;;0.85;;
30593;SDS011;33199;47.590;8.300;2023-03-20T11:54:57;1.60;;;1.50;;
30593;SDS011;33199;47.590;8.300;2023-03-20T11:57:32;0.98;;;0.98;;
30593;SDS011;33199;47.590;8.300;2023-03-20T12:00:04;1.02;;;0.80;;
30593;SDS011;33199;47.590;8.300;2023-03-20T12:02:48;1.03;;;0.90;;
30593;SDS011;33199;47.590;8.300;2023-03-20T12:08:17;0.98;;;0.80;;
30593;SDS011;33199;47.590;8.300;2023-03-20T12:10:50;0.80;;;0.80;;
30593;SDS011;33199;47.590;8.300;2023-03-20T12:13:26;0.63;;;0.63;;
30593;SDS011;33199;47.590;8.300;2023-03-20T12:16:05;0.68;;;0.68;;
30593;SDS011;33199;47.590;8.300;2023-03-20T12:18:53;0.68;;;0.68;;
30593;SDS011;33199;47.590;8.300;2023-03-20T12:21:34;1.48;;;0.80;;
30593;SDS011;33199;47.590;8.300;2023-03-20T12:24:12;1.00;;;0.90;;
30593;SDS011;33199;47.590;8.300;2023-03-20T12:26:56;2.10;;;0.85;;
30593;SDS011;33199;47.590;8.300;2023-03-20T12:37:54;0.60;;;0.60;;
30593;SDS011;33199;47.590;8.300;2023-03-20T12:40:20;0.93;;;0.73;;
30593;SDS011;33199;47.590;8.300;2023-03-20T12:42:59;0.70;;;0.70;;
30593;SDS011;33199;47.590;8.300;2023-03-20T12:45:33;0.70;;;0.70;;
30593;SDS011;33199;47.590;8.300;2023-03-20T12:48:31;0.60;;;0.60;;
30593;SDS011;33199;47.590;8.300;2023-03-20T13:01:31;0.73;;;0.73;;
30593;SDS011;33199;47.590;8.300;2023-03-20T13:06:31;0.65;;;0.65;;
30593;SDS011;33199;47.590;8.300;2023-03-20T13:36:35;0.65;;;0.65;;
30593;SDS011;33199;47.590;8.300;2023-03-20T13:39:17;1.08;;;0.80;;
30593;SDS011;33199;47.590;8.300;2023-03-20T13:41:49;2.97;;;0.70;;
30593;SDS011;33199;47.590;8.300;2023-03-20T13:44:17;0.60;;;0.60;;
30593;SDS011;33199;47.590;8.300;2023-03-20T13:46:49;0.63;;;0.63;;
30593;SDS011;33199;47.590;8.300;2023-03-20T13:51:59;0.70;;;0.70;;
30593;SDS011;33199;47.590;8.300;2023-03-20T13:55:07;0.75;;;0.70;;
30593;SDS011;33199;47.590;8.300;2023-03-20T14:05:49;2.35;;;0.70;;
30593;SDS011;33199;47.590;8.300;2023-03-20T14:16:16;0.55;;;0.55;;
30593;SDS011;33199;47.590;8.300;2023-03-20T14:18:46;1.25;;;0.63;;
30593;SDS011;33199;47.590;8.300;2023-03-20T14:21:17;0.68;;;0.68;;
30593;SDS011;33199;47.590;8.300;2023-03-20T14:23:56;0.65;;;0.63;;
30593;SDS011;33199;47.590;8.300;2023-03-20T14:26:30;0.55;;;0.55;;
30593;SDS011;33199;47.590;8.300;2023-03-20T14:29:01;0.70;;;0.70;;
30593;SDS011;33199;47.590;8.300;2023-03-20T14:31:48;1.55;;;0.90;;
30593;SDS011;33199;47.590;8.300;2023-03-20T14:34:22;0.60;;;0.60;;
30593;SDS011;33199;47.590;8.300;2023-03-20T14:36:57;0.63;;;0.63;;
30593;SDS011;33199;47.590;8.300;2023-03-20T14:39:26;0.70;;;0.70;;
30593;SDS011;33199;47.590;8.300;2023-03-20T14:53:19;0.55;;;0.55;;
30593;SDS011;33199;47.590;8.300;2023-03-20T15:01:14;0.73;;;0.70;;
30593;SDS011;33199;47.590;8.300;2023-03-20T15:03:48;0.60;;;0.60;;
30593;SDS011;33199;47.590;8.300;2023-03-20T15:06:18;0.68;;;0.68;;
30593;SDS011;33199;47.590;8.300;2023-03-20T15:08:47;0.70;;;0.70;;
30593;SDS011;33199;47.590;8.300;2023-03-20T15:11:16;1.02;;;0.60;;
30593;SDS011;33199;47.590;8.300;2023-03-20T15:13:42;1.23;;;0.68;;
30593;SDS011;33199;47.590;8.300;2023-03-20T15:16:10;0.50;;;0.50;;
30593;SDS011;33199;47.590;8.300;2023-03-20T15:18:41;0.70;;;0.70;;
30593;SDS011;33199;47.590;8.300;2023-03-20T15:21:20;0.57;;;0.57;;
30593;SDS011;33199;47.590;8.300;2023-03-20T15:26:24;0.60;;;0.52;;
30593;SDS011;33199;47.590;8.300;2023-03-20T15:28:57;0.52;;;0.52;;
30593;SDS011;33199;47.590;8.300;2023-03-20T15:31:27;0.80;;;0.80;;
30593;SDS011;33199;47.590;8.300;2023-03-20T15:33:57;0.50;;;0.50;;
30593;SDS011;33199;47.590;8.300;2023-03-20T15:36:30;0.45;;;0.43;;
30593;SDS011;33199;47.590;8.300;2023-03-20T15:39:06;0.65;;;0.65;;
30593;SDS011;33199;47.590;8.300;2023-03-20T15:41:43;2.40;;;0.52;;
30593;SDS011;33199;47.590;8.300;2023-03-20T15:44:19;0.50;;;0.50;;
30593;SDS011;33199;47.590;8.300;2023-03-20T15:46:51;0.50;;;0.50;;
30593;SDS011;33199;47.590;8.300;2023-03-20T15:49:23;0.45;;;0.45;;
30593;SDS011;33199;47.590;8.300;2023-03-20T15:51:49;0.60;;;0.60;;
30593;SDS011;33199;47.590;8.300;2023-03-20T15:54:16;0.60;;;0.60;;
30593;SDS011;33199;47.590;8.300;2023-03-20T15:56:44;0.60;;;0.60;;
30593;SDS011;33199;47.590;8.300;2023-03-20T15:59:12;0.60;;;0.60;;
30593;SDS011;33199;47.590;8.300;2023-03-20T16:01:40;0.60;;;0.60;;
30593;SDS011;33199;47.590;8.300;2023-03-20T16:04:16;0.82;;;0.70;;
30593;SDS011;33199;47.590;8.300;2023-03-20T16:06:44;0.60;;;0.60;;
30593;SDS011;33199;47.590;8.300;2023-03-20T16:09:11;1.30;;;0.60;;
30593;SDS011;33199;47.590;8.300;2023-03-20T16:14:08;0.60;;;0.60;;
30593;SDS011;33199;47.590;8.300;2023-03-20T16:16:38;0.50;;;0.50;;
30593;SDS011;33199;47.590;8.300;2023-03-20T16:19:05;0.50;;;0.50;;
30593;SDS011;33199;47.590;8.300;2023-03-20T16:21:36;0.60;;;0.60;;
30593;SDS011;33199;47.590;8.300;2023-03-20T16:24:08;0.70;;;0.70;;
30593;SDS011;33199;47.590;8.300;2023-03-20T16:26:41;0.70;;;0.70;;
30593;SDS011;33199;47.590;8.300;2023-03-20T16:29:09;1.77;;;0.77;;
30593;SDS011;33199;47.590;8.300;2023-03-20T16:31:40;1.70;;;0.80;;
30593;SDS011;33199;47.590;8.300;2023-03-20T16:34:34;0.88;;;0.77;;
30593;SDS011;33199;47.590;8.300;2023-03-20T16:39:31;0.77;;;0.77;;
30593;SDS011;33199;47.590;8.300;2023-03-20T16:42:09;0.80;;;0.80;;
30593;SDS011;33199;47.590;8.300;2023-03-20T16:44:45;5.88;;;0.85;;
30593;SDS011;33199;47.590;8.300;2023-03-20T16:47:20;0.80;;;0.70;;
30593;SDS011;33199;47.590;8.300;2023-03-20T16:50:19;0.60;;;0.60;;
30593;SDS011;33199;47.590;8.300;2023-03-20T16:52:55;2.40;;;0.70;;
30593;SDS011;33199;47.590;8.300;2023-03-20T16:55:26;0.63;;;0.63;;
30593;SDS011;33199;47.590;8.300;2023-03-20T16:57:58;0.70;;;0.70;;
30593;SDS011;33199;47.590;8.300;2023-03-20T17:03:24;3.60;;;0.88;;
30593;SDS011;33199;47.590;8.300;2023-03-20T17:05:56;1.23;;;0.70;;
30593;SDS011;33199;47.590;8.300;2023-03-20T17:08:39;2.83;;;0.77;;
30593;SDS011;33199;47.590;8.300;2023-03-20T17:11:12;5.40;;;1.08;;
30593;SDS011;33199;47.590;8.300;2023-03-20T17:13:40;1.67;;;0.60;;
30593;SDS011;33199;47.590;8.300;2023-03-20T17:16:12;0.93;;;0.60;;
30593;SDS011;33199;47.590;8.300;2023-03-20T17:18:41;3.65;;;0.70;;
30593;SDS011;33199;47.590;8.300;2023-03-20T17:21:10;3.03;;;0.80;;
30593;SDS011;33199;47.590;8.300;2023-03-20T17:23:36;0.70;;;0.70;;
30593;SDS011;33199;47.590;8.300;2023-03-20T17:26:02;1.08;;;0.70;;
30593;SDS011;33199;47.590;8.300;2023-03-20T17:28:30;0.70;;;0.55;;
30593;SDS011;33199;47.590;8.300;2023-03-20T17:30:59;0.60;;;0.60;;
30593;SDS011;33199;47.590;8.300;2023-03-20T17:33:29;0.85;;;0.63;;
30593;SDS011;33199;47.590;8.300;2023-03-20T17:35:56;0.73;;;0.73;;
30593;SDS011;33199;47.590;8.300;2023-03-20T17:38:23;0.88;;;0.73;;
30593;SDS011;33199;47.590;8.300;2023-03-20T17:40:49;0.75;;;0.60;;
30593;SDS011;33199;47.590;8.300;2023-03-20T17:43:16;0.60;;;0.60;;
30593;SDS011;33199;47.590;8.300;2023-03-20T17:45:43;1.13;;;0.50;;
30593;SDS011;33199;47.590;8.300;2023-03-20T17:48:19;1.10;;;0.57;;
30593;SDS011;33199;47.590;8.300;2023-03-20T17:50:46;0.65;;;0.65;;
30593;SDS011;33199;47.590;8.300;2023-03-20T17:53:20;1.58;;;0.77;;
30593;SDS011;33199;47.590;8.300;2023-03-20T17:55:48;2.40;;;0.55;;
30593;SDS011;33199;47.590;8.300;2023-03-20T17:58:15;0.95;;;0.70;;
30593;SDS011;33199;47.590;8.300;2023-03-20T18:00:42;1.13;;;0.70;;
30593;SDS011;33199;47.590;8.300;2023-03-20T18:03:08;0.60;;;0.60;;
30593;SDS011;33199;47.590;8.300;2023-03-20T18:05:35;0.60;;;0.43;;
30593;SDS011;33199;47.590;8.300;2023-03-20T18:08:03;0.60;;;0.60;;
30593;SDS011;33199;47.590;8.300;2023-03-20T18:10:31;0.60;;;0.60;;
30593;SDS011;33199;47.590;8.300;2023-03-20T18:12:57;0.47;;;0.47;;
30593;SDS011;33199;47.590;8.300;2023-03-20T18:15:25;0.85;;;0.70;;